Aviation Digital Data Service (ADDS)

Output produced by METARs form (1349 UTC 22 October 2014)
found at http://www.aviationweather.gov/adds/metars/
 
KJST 221254Z AUTO 35012KT 10SM OVC004 06/05 A3006 RMK AO2 SLP190 T00610050
KJST 221246Z AUTO 35013G19KT 10SM OVC004 06/05 A3006 RMK AO2 T00610050
KJST 221154Z AUTO 33010KT 10SM OVC007 07/05 A3003 RMK AO2 SLP180 60005 70028 T00670050 10078 20067 53016
KJST 221054Z AUTO 35010KT 10SM OVC007 07/06 A3002 RMK AO2 CIG 005V010 SLP174 T00720056
KJST 221042Z AUTO 35008KT 10SM OVC005 07/06 A3001 RMK AO2 CIG 004V008 T00720056
KJST 221032Z AUTO 35010KT 10SM OVC004 07/06 A3001 RMK AO2 CIG 004V007 T00720056
KJST 220954Z AUTO 34010KT 10SM OVC005 07/06 A3000 RMK AO2 CIG 004V009 SLP166 T00720061
KJST 220907Z AUTO 34008KT 7SM OVC004 08/07 A2999 RMK AO2 CIG 003V009 T00780067
KJST 220854Z AUTO 35007KT 7SM OVC005 08/07 A2998 RMK AO2 CIG 003V007 SLP161 60005 T00780067 53008
KJST 220835Z AUTO 34008KT 8SM BKN005 BKN009 OVC015 08/07 A2998 RMK AO2 CIG 003V007 T00780067
KJST 220754Z AUTO 35007KT 7SM OVC004 08/07 A2996 RMK AO2 RAE08 CIG 003V007 SLP154 P0000 T00780067
KJST 220654Z AUTO 34006KT 5SM -RA BR OVC004 07/07 A2996 RMK AO2 RAE17B32 SLP154 P0005 T00720067
KJST 220646Z AUTO 35006KT 3SM RA BR BKN002 OVC007 07/07 A2996 RMK AO2 RAE17B32 P0004 T00720067
KJST 220640Z AUTO 35007KT 1 3/4SM RA BR OVC002 07/07 A2996 RMK AO2 RAE17B32 P0003 T00720067
KJST 220619Z AUTO 35006KT 1/2SM FG VV002 07/07 A2996 RMK AO2 RAE17 P0001 T00720067
KJST 220612Z AUTO 35007KT 1SM -RA BR VV002 07/07 A2996 RMK AO2 P0001 T00720067
KJST 220601Z AUTO 34006KT 3/4SM RA BR VV002 07/07 A2996 RMK AO2 P0001 T00720067
KJST 220554Z AUTO 34006KT 1SM -RA BR VV002 07/06 A2996 RMK AO2 SLP152 P0005 60022 T00720061 10078 20072 58003
KJST 220536Z AUTO 33007KT 1SM RA BR VV002 07/06 A2996 RMK AO2 VIS 1/4V2 1/2 P0003 T00720061
KJST 220527Z AUTO 34007KT 1/4SM RA FG VV002 07/06 A2996 RMK AO2 P0002 T00720061
KJST 220510Z AUTO 34007KT 3/4SM -RA BR VV002 07/06 A2996 RMK AO2 P0000 T00720061
KJST 220458Z AUTO 33006KT 1 3/4SM -RA BR OVC003 07/06 A2996 RMK AO2 P0000 T00720061
KJST 220454Z AUTO 34007KT 3SM -RA BR OVC003 07/06 A2996 RMK AO2 SLP154 P0010 T00720061 401170072
KJST 220422Z AUTO 32006KT 4SM -RA BR OVC003 07/06 A2996 RMK AO2 P0006 T00720061
KJST 220408Z AUTO 32008KT 2 1/2SM +RA BR OVC003 07/06 A2996 RMK AO2 P0004 T00720061
KJST 220354Z AUTO 31005KT 4SM -RA BR OVC003 07/06 A2996 RMK AO2 SLP154 P0007 T00720061
KJST 220254Z AUTO 32010KT 5SM -RA BR OVC003 07/06 A2997 RMK AO2 RAB03E17B51 SLP157 P0000 60000 T00720061 53012
KJST 220208Z AUTO 32011KT 7SM -RA OVC004 07/06 A2996 RMK AO2 RAB03 P0000 T00720061
KJST 220154Z AUTO 33009KT 10SM OVC005 07/06 A2996 RMK AO2 RAB37E47 SLP153 P0000 T00720061
KJST 220134Z AUTO 33011KT 10SM OVC005 07/06 A2995 RMK AO2 CIG 004V009 T00720061
KJST 220102Z AUTO 32012KT 10SM OVC004 07/06 A2994 RMK AO2 T00720061
KJST 220054Z AUTO 33009KT 10SM OVC005 07/06 A2994 RMK AO2 RAB03E13 CIG 003V008 SLP147 P0000 T00720061
KJST 220010Z AUTO 33009KT 9SM -RA BKN008 OVC025 08/06 A2994 RMK AO2 RAB03 CIG 006V013 P0000 T00780056
KJST 212354Z AUTO 32008KT 10SM BKN010 OVC025 08/06 A2993 RMK AO2 CIG 008V012 SLP143 60001 T00780056 10106 20078 53017
KJST 212332Z AUTO 32010KT 10SM FEW013 BKN028 OVC035 08/05 A2992 RMK AO2 T00780050
KJST 212254Z AUTO 32008KT 10SM SCT021 BKN032 OVC045 08/04 A2991 RMK AO2 SLP135 T00830044
KJST 212213Z AUTO 34006KT 10SM FEW021 BKN031 OVC043 09/05 A2990 RMK AO2 T00890050
KJST 212154Z AUTO 34007KT 10SM BKN021 BKN026 OVC031 09/05 A2989 RMK AO2 SLP129 T00890050
KJST 212054Z AUTO 28006KT 10SM BKN023 OVC031 09/05 A2988 RMK AO2 SLP124 60001 T00890050 53009
KJST 211954Z AUTO 34010KT 10SM OVC021 09/05 A2986 RMK AO2 SLP115 T00940050
KJST 211854Z AUTO 31010G15KT 10SM BKN019 BKN023 BKN080 10/06 A2984 RMK AO2 RAE25 SLP107 P0001 T01000061
KJST 211806Z AUTO 29009KT 8SM -RA FEW017 BKN033 OVC049 09/06 A2985 RMK AO2 P0001 T00890056
KJST 211754Z AUTO 29008KT 10SM -RA BKN019 BKN025 OVC033 09/06 A2985 RMK AO2 RAB46 SLP112 P0000 60000 T00940061 10117 20083 56006
KJST 211721Z AUTO 30009KT 10SM FEW014 BKN025 OVC042 11/07 A2985 RMK AO2 T01060072
KJST 211711Z AUTO 31011KT 10SM BKN014 BKN023 BKN042 11/07 A2985 RMK AO2 T01110072
KJST 211701Z AUTO 27008KT 10SM SCT014 SCT024 BKN030 11/07 A2985 RMK AO2 T01060072
KJST 211654Z AUTO 24007KT 9SM BKN014 BKN021 OVC042 11/07 A2985 RMK AO2 SLP111 T01060072
KJST 211630Z AUTO 26010KT 9SM SCT014 BKN022 OVC050 11/07 A2986 RMK AO2 T01060072
KJST 211554Z AUTO 27008KT 7SM FEW009 BKN013 OVC022 10/08 A2986 RMK AO2 SLP116 T01000078
KJST 211454Z AUTO 25006KT 3SM BR OVC005 08/08 A2987 RMK AO2 CIG 003V007 SLP118 60000 T00830078 51006
KJST 211429Z AUTO 25006KT 3SM BR OVC005 08/08 A2987 RMK AO2 CIG 002V008 T00830078
KJST 211423Z AUTO 26007KT 2 1/2SM BR OVC003 08/08 A2987 RMK AO2 CIG 002V007 T00830078
KJST 211414Z AUTO 26006KT 1 3/4SM BR OVC003 09/08 A2987 RMK AO2 T00890078
KJST 211406Z AUTO 26006KT 2SM BR OVC002 08/08 A2987 RMK AO2 T00830078
KJST 211354Z AUTO 25006KT 1 1/4SM BR OVC002 08/08 A2987 RMK AO2 SLP120 T00830078
KJST 211351Z AUTO 24006KT 1SM BR VV002 08/08 A2986 RMK AO2
KJST 211318Z AUTO 26007KT 1/4SM FG VV002 08/08 A2987 RMK AO2 T00830078
KJST 211254Z AUTO 26007KT 1/2SM FG VV002 08/08 A2986 RMK AO2 RAB37E46 SLP117 P0000 T00830078
KJST 211222Z AUTO 24007KT 1/4SM FG VV002 08/08 A2986 RMK AO2 T00830078
KJST 211154Z AUTO 26006KT 3/4SM BR VV002 08/08 A2985 RMK AO2 SLP112 60002 70002 T00830078 10094 20083 53005
KJST 211142Z AUTO 26007KT 1/2SM FG VV002 08/08 A2985 RMK AO2 T00830078
KJST 211054Z AUTO 27006KT 1/4SM FG VV002 08/07 A2984 RMK AO2 RAE44 SLP108 P0002 T00830072
KJST 211037Z AUTO 25009KT 1/4SM -RA FG VV002 08/07 A2984 RMK AO2 P0001 T00830072
KJST 211025Z AUTO 25006KT 3/4SM -RA BR OVC002 08/07 A2983 RMK AO2 P0001 T00830072
KJST 211016Z AUTO 24007KT 2SM -RA BR OVC002 08/07 A2983 RMK AO2 P0001 T00830072
KJST 211007Z AUTO 22005KT 3SM -RA BR BKN002 OVC006 08/07 A2983 RMK AO2 P0001 T00830072
KJST 210954Z AUTO 21004KT 5SM -RA BR OVC006 08/07 A2983 RMK AO2 RAB21 SLP105 P0000 T00830067
KJST 210911Z AUTO 22005KT 10SM OVC009 08/06 A2983 RMK AO2 CIG 008V012 T00830061
KJST 210854Z AUTO 23007KT 10SM OVC012 09/06 A2983 RMK AO2 SLP106 T00890061 56006
KJST 210831Z AUTO 22006KT 10SM BKN014 OVC023 09/06 A2983 RMK AO2 T00890056
KJST 210754Z AUTO 24006KT 10SM BKN018 OVC023 09/06 A2984 RMK AO2 SLP106 T00890056
KJST 210654Z AUTO 21008KT 10SM BKN019 OVC024 09/06 A2985 RMK AO2 SLP109 T00940056
KJST 210554Z AUTO 20006KT 10SM BKN023 OVC035 09/06 A2985 RMK AO2 SLP112 60000 T00940056 10106 20089 58014
KJST 210544Z AUTO 19005KT 10SM BKN021 BKN027 OVC037 09/06 A2985 RMK AO2 T00940056
KJST 210516Z AUTO 20005KT 10SM FEW020 SCT026 OVC033 09/05 A2986 RMK AO2 T00940050
KJST 210454Z AUTO 21004KT 10SM BKN020 BKN025 OVC031 09/05 A2987 RMK AO2 SLP117 T00940050 401110039
KJST 210354Z AUTO 24009KT 10SM FEW021 BKN026 OVC039 09/05 A2988 RMK AO2 SLP123 T00940050
KJST 210254Z AUTO 21007KT 10SM BKN026 OVC034 10/04 A2990 RMK AO2 SLP131 60000 T01000039 56003
KJST 210247Z AUTO 20006KT 10SM BKN027 BKN034 OVC065 10/04 A2990 RMK AO2 T01000039
KJST 210154Z AUTO 22008KT 10SM SCT075 OVC100 09/03 A2990 RMK AO2 RAB04E18 SLP131 P0000 T00940033